CTV171 WARR-WIII
Flight info
| Callsign | CTV171 |
|---|---|
| Flight time | 1h 4m |
| Altitude | 32000 |
| Route | LASEM T2 KALUT T6 KURUS |
| Aircraft | A320/M-SDE3FGHIRWY/LB1 |
Departure
| Time | 2026-05-04 10:42 |
|---|---|
| Airport | Juanda International Airport (WARR) |
Arrival
| Time | 2026-05-04 11:46 |
|---|---|
| Airport | Soekarno-Hatta International Airport (WIII) |
| Time | Latitude | Longitude | Altitude | Speed | Heading |
|---|---|---|---|---|---|
| 2026-05-04 10:16 | -7.37611 | 112.79592 | 9 ft | 0 kts | 9° |
| 2026-05-04 10:17 | -7.37612 | 112.79592 | 9 ft | 0 kts | 9° |
| 2026-05-04 10:32 | -7.37638 | 112.79588 | 11 ft | 2 kts | 7° |
| 2026-05-04 10:33 | -7.37655 | 112.79586 | 12 ft | 2 kts | 6° |
| 2026-05-04 10:33 | -7.37671 | 112.79585 | 11 ft | 2 kts | 1° |
| 2026-05-04 10:33 | -7.37688 | 112.79585 | 9 ft | 2 kts | 346° |
| 2026-05-04 10:33 | -7.37701 | 112.79593 | 11 ft | 2 kts | 279° |
| 2026-05-04 10:34 | -7.37702 | 112.79597 | 12 ft | 0 kts | 279° |
| 2026-05-04 10:36 | -7.37700 | 112.79583 | 12 ft | 5 kts | 279° |
| 2026-05-04 10:36 | -7.37691 | 112.79529 | 10 ft | 12 kts | 279° |
| 2026-05-04 10:36 | -7.37706 | 112.79450 | 9 ft | 12 kts | 207° |
| 2026-05-04 10:36 | -7.37801 | 112.79433 | 10 ft | 18 kts | 189° |
| 2026-05-04 10:37 | -7.37908 | 112.79395 | 9 ft | 14 kts | 235° |
| 2026-05-04 10:37 | -7.37907 | 112.79304 | 9 ft | 14 kts | 279° |
| 2026-05-04 10:37 | -7.37888 | 112.79183 | 9 ft | 22 kts | 279° |
| 2026-05-04 10:37 | -7.37860 | 112.79010 | 10 ft | 29 kts | 279° |
| 2026-05-04 10:39 | -7.37685 | 112.77925 | 9 ft | 30 kts | 279° |
| 2026-05-04 10:39 | -7.37651 | 112.77713 | 9 ft | 31 kts | 279° |
| 2026-05-04 10:39 | -7.37620 | 112.77526 | 9 ft | 24 kts | 280° |
| 2026-05-04 10:40 | -7.37623 | 112.77401 | 10 ft | 13 kts | 231° |
| 2026-05-04 10:40 | -7.37702 | 112.77376 | 9 ft | 11 kts | 189° |
| 2026-05-04 10:40 | -7.37767 | 112.77383 | 9 ft | 9 kts | 133° |
| 2026-05-04 10:40 | -7.37779 | 112.77426 | 9 ft | 2 kts | 99° |
| 2026-05-04 10:41 | -7.37789 | 112.77486 | 9 ft | 31 kts | 99° |
| 2026-05-04 10:41 | -7.37862 | 112.77943 | 10 ft | 98 kts | 99° |
| 2026-05-04 10:41 | -7.38002 | 112.78805 | 10 ft | 149 kts | 99° |
| 2026-05-04 10:41 | -7.38182 | 112.79920 | 370 ft | 164 kts | 98° |
| 2026-05-04 10:42 | -7.38368 | 112.81056 | 966 ft | 165 kts | 98° |
| 2026-05-04 10:42 | -7.38567 | 112.82244 | 1346 ft | 181 kts | 99° |
| 2026-05-04 10:42 | -7.38791 | 112.83572 | 1617 ft | 204 kts | 98° |
| 2026-05-04 10:42 | -7.39045 | 112.85059 | 1963 ft | 225 kts | 99° |
| 2026-05-04 10:43 | -7.39325 | 112.86698 | 2368 ft | 249 kts | 99° |
| 2026-05-04 10:44 | -7.31325 | 112.92292 | 7645 ft | 290 kts | 346° |
| 2026-05-04 10:45 | -7.29369 | 112.91771 | 8394 ft | 293 kts | 346° |
| 2026-05-04 10:45 | -7.27389 | 112.91244 | 9129 ft | 296 kts | 346° |
| 2026-05-04 10:45 | -7.25389 | 112.90713 | 9856 ft | 299 kts | 346° |
| 2026-05-04 10:45 | -7.23358 | 112.90175 | 10369 ft | 309 kts | 346° |
| 2026-05-04 10:46 | -7.21198 | 112.89607 | 10525 ft | 332 kts | 346° |
| 2026-05-04 10:46 | -7.18894 | 112.89004 | 10770 ft | 349 kts | 346° |
| 2026-05-04 10:46 | -7.16578 | 112.88194 | 11290 ft | 357 kts | 334° |
| 2026-05-04 10:46 | -7.14544 | 112.86801 | 11868 ft | 362 kts | 318° |
| 2026-05-04 10:47 | -7.12921 | 112.84850 | 12472 ft | 367 kts | 302° |
| 2026-05-04 10:47 | -7.11884 | 112.82491 | 13067 ft | 371 kts | 285° |
| 2026-05-04 10:47 | -7.11380 | 112.79931 | 13642 ft | 375 kts | 280° |
| 2026-05-04 10:47 | -7.10924 | 112.77339 | 14154 ft | 378 kts | 280° |
| 2026-05-04 10:49 | -7.07574 | 112.58632 | 17675 ft | 398 kts | 280° |
| 2026-05-04 10:49 | -7.07080 | 112.55881 | 18144 ft | 401 kts | 280° |
| 2026-05-04 10:50 | -7.06581 | 112.53106 | 18553 ft | 404 kts | 280° |
| 2026-05-04 10:51 | -7.03007 | 112.33234 | 21306 ft | 420 kts | 280° |
| 2026-05-04 10:52 | -7.02464 | 112.30336 | 21681 ft | 423 kts | 283° |
| 2026-05-04 10:52 | -7.01559 | 112.27516 | 22046 ft | 425 kts | 291° |
| 2026-05-04 10:52 | -7.00455 | 112.24750 | 22416 ft | 427 kts | 292° |
| 2026-05-04 10:54 | -6.90885 | 112.05849 | 24642 ft | 442 kts | 303° |
| 2026-05-04 10:54 | -6.89212 | 112.03295 | 24924 ft | 444 kts | 303° |
| 2026-05-04 10:56 | -6.77168 | 111.84883 | 26850 ft | 456 kts | 303° |
| 2026-05-04 10:56 | -6.75418 | 111.82210 | 27108 ft | 458 kts | 303° |
| 2026-05-04 10:56 | -6.73659 | 111.79528 | 27372 ft | 460 kts | 303° |
| 2026-05-04 10:57 | -6.71893 | 111.76834 | 27637 ft | 462 kts | 303° |
| 2026-05-04 10:57 | -6.70120 | 111.74129 | 27900 ft | 464 kts | 303° |
| 2026-05-04 10:57 | -6.68345 | 111.71418 | 28156 ft | 466 kts | 303° |
| 2026-05-04 10:57 | -6.66555 | 111.68688 | 28403 ft | 468 kts | 303° |
| 2026-05-04 10:58 | -6.64760 | 111.65954 | 28637 ft | 469 kts | 304° |
| 2026-05-04 10:58 | -6.62958 | 111.63208 | 28883 ft | 471 kts | 304° |
| 2026-05-04 10:58 | -6.61252 | 111.60390 | 29109 ft | 473 kts | 298° |
| 2026-05-04 10:58 | -6.59727 | 111.57456 | 29335 ft | 474 kts | 298° |
| 2026-05-04 10:59 | -6.58197 | 111.54510 | 29562 ft | 476 kts | 298° |
| 2026-05-04 10:59 | -6.56664 | 111.51556 | 29785 ft | 478 kts | 298° |
| 2026-05-04 10:59 | -6.55126 | 111.48588 | 29992 ft | 479 kts | 298° |
| 2026-05-04 10:59 | -6.53583 | 111.45609 | 30175 ft | 481 kts | 298° |
| 2026-05-04 11:00 | -6.52033 | 111.42622 | 30363 ft | 482 kts | 298° |
| 2026-05-04 11:01 | -6.41298 | 111.21982 | 31868 ft | 464 kts | 297° |
| 2026-05-04 11:02 | -6.39810 | 111.19116 | 31871 ft | 461 kts | 297° |
| 2026-05-04 11:05 | -6.17613 | 110.77555 | 31873 ft | 460 kts | 298° |
| 2026-05-04 11:06 | -6.14568 | 110.71905 | 31874 ft | 460 kts | 298° |
| 2026-05-04 11:06 | -6.11545 | 110.66286 | 31873 ft | 460 kts | 298° |
| 2026-05-04 11:10 | -5.96523 | 110.24852 | 31880 ft | 461 kts | 270° |
| 2026-05-04 11:12 | -5.96502 | 109.99119 | 31876 ft | 461 kts | 270° |
| 2026-05-04 11:12 | -5.96496 | 109.92674 | 31875 ft | 461 kts | 270° |
| 2026-05-04 11:13 | -5.96489 | 109.86226 | 31879 ft | 462 kts | 270° |
| 2026-05-04 11:13 | -5.96484 | 109.79771 | 31879 ft | 462 kts | 270° |
| 2026-05-04 11:14 | -5.96484 | 109.78681 | 31880 ft | 462 kts | 270° |
| 2026-05-04 11:16 | -5.96454 | 109.47483 | 31881 ft | 462 kts | 270° |
| 2026-05-04 11:16 | -5.96440 | 109.41025 | 31884 ft | 462 kts | 270° |
| 2026-05-04 11:17 | -5.96426 | 109.34568 | 31882 ft | 462 kts | 270° |
| 2026-05-04 11:19 | -5.96378 | 109.08718 | 31893 ft | 463 kts | 270° |
| 2026-05-04 11:19 | -5.96371 | 109.02247 | 31896 ft | 463 kts | 270° |
| 2026-05-04 11:20 | -5.96359 | 108.95773 | 31896 ft | 463 kts | 270° |
| 2026-05-04 11:20 | -5.96343 | 108.89301 | 31895 ft | 463 kts | 270° |
| 2026-05-04 11:22 | -5.96271 | 108.63410 | 31885 ft | 463 kts | 270° |
| 2026-05-04 11:23 | -5.96252 | 108.56943 | 31880 ft | 463 kts | 270° |
| 2026-05-04 11:24 | -5.96214 | 108.37703 | 29590 ft | 456 kts | 271° |
| 2026-05-04 11:25 | -5.96213 | 108.34529 | 29028 ft | 452 kts | 271° |
| 2026-05-04 11:25 | -5.96209 | 108.31381 | 28467 ft | 449 kts | 271° |
| 2026-05-04 11:25 | -5.96207 | 108.28254 | 27910 ft | 446 kts | 270° |
| 2026-05-04 11:26 | -5.96204 | 108.22057 | 26823 ft | 440 kts | 270° |
| 2026-05-04 11:27 | -5.96170 | 108.01066 | 23602 ft | 412 kts | 270° |
| 2026-05-04 11:28 | -5.96166 | 107.98201 | 23163 ft | 408 kts | 270° |
| 2026-05-04 11:28 | -5.96166 | 107.95373 | 22531 ft | 403 kts | 270° |
| 2026-05-04 11:28 | -5.96168 | 107.92565 | 21989 ft | 400 kts | 270° |
| 2026-05-04 11:28 | -5.96169 | 107.89790 | 21404 ft | 395 kts | 270° |
| 2026-05-04 11:29 | -5.96172 | 107.87044 | 20819 ft | 391 kts | 270° |
| 2026-05-04 11:29 | -5.96172 | 107.84321 | 20258 ft | 387 kts | 270° |
| 2026-05-04 11:29 | -5.96171 | 107.81628 | 19663 ft | 384 kts | 270° |
| 2026-05-04 11:29 | -5.96167 | 107.78967 | 19157 ft | 379 kts | 270° |
| 2026-05-04 11:31 | -5.96160 | 107.61174 | 16405 ft | 343 kts | 270° |
| 2026-05-04 11:33 | -5.96175 | 107.44766 | 13236 ft | 327 kts | 270° |
| 2026-05-04 11:33 | -5.96175 | 107.42491 | 12737 ft | 324 kts | 270° |
| 2026-05-04 11:33 | -5.96172 | 107.40236 | 12241 ft | 322 kts | 270° |
| 2026-05-04 11:34 | -5.96167 | 107.37998 | 11761 ft | 319 kts | 270° |
| 2026-05-04 11:34 | -5.96161 | 107.35787 | 11414 ft | 311 kts | 270° |
| 2026-05-04 11:34 | -5.96159 | 107.33667 | 11256 ft | 297 kts | 270° |
| 2026-05-04 11:34 | -5.96161 | 107.31616 | 10974 ft | 291 kts | 270° |
| 2026-05-04 11:35 | -5.96162 | 107.29587 | 10683 ft | 290 kts | 270° |
| 2026-05-04 11:35 | -5.96162 | 107.27572 | 10410 ft | 287 kts | 270° |
| 2026-05-04 11:35 | -5.96162 | 107.25570 | 10107 ft | 287 kts | 270° |
| 2026-05-04 11:35 | -5.96160 | 107.23572 | 9812 ft | 285 kts | 270° |
| 2026-05-04 11:36 | -5.96158 | 107.21593 | 9391 ft | 283 kts | 270° |
| 2026-05-04 11:36 | -5.96155 | 107.19622 | 8969 ft | 281 kts | 270° |
| 2026-05-04 11:36 | -5.96155 | 107.17661 | 8538 ft | 279 kts | 270° |
| 2026-05-04 11:36 | -5.96154 | 107.15719 | 8106 ft | 278 kts | 270° |
| 2026-05-04 11:37 | -5.96152 | 107.13788 | 7681 ft | 275 kts | 269° |
| 2026-05-04 11:37 | -5.96150 | 107.11849 | 7185 ft | 276 kts | 269° |
| 2026-05-04 11:37 | -5.96287 | 107.09973 | 6995 ft | 263 kts | 256° |
| 2026-05-04 11:37 | -5.96878 | 107.08239 | 6625 ft | 264 kts | 247° |
| 2026-05-04 11:38 | -5.97549 | 107.06532 | 6241 ft | 260 kts | 247° |
| 2026-05-04 11:38 | -5.98205 | 107.04865 | 5872 ft | 253 kts | 247° |
| 2026-05-04 11:38 | -5.98842 | 107.03239 | 5523 ft | 246 kts | 247° |
| 2026-05-04 11:38 | -5.99457 | 107.01660 | 5197 ft | 240 kts | 247° |
| 2026-05-04 11:39 | -6.00057 | 107.00116 | 4872 ft | 234 kts | 248° |
| 2026-05-04 11:39 | -6.00643 | 106.98610 | 4543 ft | 229 kts | 248° |
| 2026-05-04 11:40 | -6.03980 | 106.90123 | 4010 ft | 215 kts | 247° |
| 2026-05-04 11:41 | -6.04538 | 106.88728 | 3939 ft | 217 kts | 247° |
| 2026-05-04 11:41 | -6.05093 | 106.87335 | 3762 ft | 211 kts | 247° |
| 2026-05-04 11:41 | -6.05629 | 106.85994 | 3555 ft | 203 kts | 247° |
| 2026-05-04 11:41 | -6.06136 | 106.84723 | 3452 ft | 191 kts | 247° |
| 2026-05-04 11:42 | -6.06623 | 106.83502 | 3263 ft | 186 kts | 247° |
| 2026-05-04 11:42 | -6.07102 | 106.82302 | 3036 ft | 184 kts | 247° |
| 2026-05-04 11:42 | -6.07578 | 106.81110 | 2812 ft | 183 kts | 248° |
| 2026-05-04 11:42 | -6.08051 | 106.79926 | 2578 ft | 182 kts | 247° |
| 2026-05-04 11:43 | -6.08520 | 106.78750 | 2346 ft | 180 kts | 247° |
| 2026-05-04 11:43 | -6.08984 | 106.77587 | 2111 ft | 178 kts | 248° |
| 2026-05-04 11:43 | -6.09443 | 106.76435 | 1887 ft | 177 kts | 247° |
| 2026-05-04 11:43 | -6.09889 | 106.75318 | 1690 ft | 165 kts | 248° |
| 2026-05-04 11:44 | -6.10302 | 106.74281 | 1455 ft | 156 kts | 247° |
| 2026-05-04 11:44 | -6.10700 | 106.73283 | 1264 ft | 152 kts | 247° |
| 2026-05-04 11:44 | -6.11093 | 106.72298 | 1066 ft | 152 kts | 247° |
| 2026-05-04 11:44 | -6.11485 | 106.71318 | 874 ft | 151 kts | 246° |
| 2026-05-04 11:45 | -6.11872 | 106.70345 | 679 ft | 149 kts | 246° |
| 2026-05-04 11:45 | -6.12128 | 106.69705 | 542 ft | 149 kts | 247° |
| 2026-05-04 11:45 | -6.12512 | 106.68742 | 365 ft | 148 kts | 246° |
| 2026-05-04 11:45 | -6.12889 | 106.67779 | 182 ft | 148 kts | 246° |
| 2026-05-04 11:46 | -6.13269 | 106.66834 | 48 ft | 137 kts | 246° |
| 2026-05-04 11:46 | -6.13581 | 106.66052 | 39 ft | 99 kts | 248° |
| 2026-05-04 11:46 | -6.13758 | 106.65583 | 38 ft | 46 kts | 261° |
| 2026-05-04 11:46 | -6.13741 | 106.65397 | 40 ft | 16 kts | 279° |
| 2026-05-04 11:47 | -6.13689 | 106.65343 | 38 ft | 7 kts | 337° |
| 2026-05-04 11:47 | -6.13686 | 106.65341 | 38 ft | 0 kts | 337° |
| 2026-05-04 11:50 | -6.13669 | 106.65334 | 39 ft | 6 kts | 337° |
| 2026-05-04 11:50 | -6.13615 | 106.65312 | 39 ft | 11 kts | 338° |
| 2026-05-04 11:50 | -6.13523 | 106.65275 | 38 ft | 17 kts | 340° |
| 2026-05-04 11:51 | -6.13404 | 106.65230 | 36 ft | 14 kts | 341° |
| 2026-05-04 11:51 | -6.13334 | 106.65253 | 38 ft | 10 kts | 59° |
| 2026-05-04 11:51 | -6.13295 | 106.65286 | 38 ft | 7 kts | 4° |
| 2026-05-04 11:51 | -6.13258 | 106.65272 | 37 ft | 3 kts | 334° |
| 2026-05-04 11:52 | -6.13257 | 106.65272 | 37 ft | 0 kts | 334° |
| 2026-05-04 12:07 | -6.13258 | 106.65272 | 38 ft | 0 kts | 334° |